Time;durP1;ratioP1;P1;durP2;ratioP2;P2;SDS_P1;SDS_P2;PMS_P1;PMS_P2;Temp;Humidity;BMP_temperature;BMP_pressure;BME280_temperature;BME280_humidity;BME280_pressure;Samples;Min_cycle;Max_cycle;Signal;HPM_P1;HPM_P2
2021/06/13 00:00:26;;;;;;;4.07;1.83;;;16.10;59.70;;;;;;5093653;28;20063;-64
2021/06/13 00:02:56;;;;;;;2.83;1.70;;;16.00;59.90;;;;;;5093075;28;20048;-65
2021/06/13 00:05:25;;;;;;;2.95;1.80;;;16.00;59.90;;;;;;5091524;28;20055;-66
2021/06/13 00:07:53;;;;;;;1.70;1.60;;;16.00;60.10;;;;;;5092170;28;20067;-65
2021/06/13 00:10:21;;;;;;;4.22;2.00;;;15.90;60.10;;;;;;5104686;28;20512;-65
2021/06/13 00:12:49;;;;;;;3.65;1.67;;;15.90;60.20;;;;;;5133903;28;20043;-65
2021/06/13 00:15:21;;;;;;;2.88;1.70;;;15.90;60.40;;;;;;5114956;28;20058;-64
2021/06/13 00:17:51;;;;;;;2.83;1.63;;;15.90;60.50;;;;;;5132908;28;20381;-65
2021/06/13 00:20:23;;;;;;;3.03;2.08;;;15.90;60.50;;;;;;5115158;28;20050;-66
2021/06/13 00:22:51;;;;;;;2.50;1.80;;;15.80;60.50;;;;;;5114766;28;20058;-65
2021/06/13 00:25:23;;;;;;;2.50;2.03;;;15.80;60.50;;;;;;5134530;28;20472;-67
2021/06/13 00:27:51;;;;;;;5.13;2.17;;;15.80;60.70;;;;;;5115129;28;20052;-64
2021/06/13 00:30:20;;;;;;;2.88;1.95;;;15.80;60.80;;;;;;5134629;28;20164;-66
2021/06/13 00:32:48;;;;;;;4.88;2.25;;;15.80;61.00;;;;;;5096153;28;20066;-65
2021/06/13 00:35:18;;;;;;;5.63;1.95;;;15.80;61.00;;;;;;5113073;28;20354;-66
2021/06/13 00:37:47;;;;;;;4.45;2.30;;;15.80;61.10;;;;;;5114268;28;20047;-64
2021/06/13 00:40:18;;;;;;;3.72;2.47;;;15.70;61.20;;;;;;5097911;27;20055;-65
2021/06/13 00:42:46;;;;;;;4.80;3.17;;;15.70;61.40;;;;;;5115388;28;20046;-65
2021/06/13 00:45:15;;;;;;;4.18;3.08;;;15.60;61.60;;;;;;5134398;28;20066;-65
2021/06/13 00:47:43;;;;;;;7.80;3.00;;;15.60;61.70;;;;;;5116230;28;20054;-65
2021/06/13 00:50:22;;;;;;;3.72;2.80;;;15.60;61.70;;;;;;5133548;27;20485;-64
2021/06/13 00:52:51;;;;;;;9.55;2.95;;;15.60;61.60;;;;;;5116409;28;20065;-66
2021/06/13 00:55:20;;;;;;;4.13;3.00;;;15.60;61.50;;;;;;5133329;28;20059;-67
2021/06/13 00:57:49;;;;;;;3.55;3.00;;;15.60;61.50;;;;;;5119269;27;20059;-66
2021/06/13 01:00:19;;;;;;;6.65;3.38;;;15.50;61.70;;;;;;5121342;27;20043;-66
2021/06/13 01:02:50;;;;;;;5.28;3.20;;;15.50;61.80;;;;;;5137724;27;20066;-66
2021/06/13 01:05:21;;;;;;;4.78;3.05;;;15.50;61.90;;;;;;5103994;27;20058;-66
2021/06/13 01:07:56;;;;;;;4.43;3.15;;;15.40;62.00;;;;;;5120273;27;20047;-64
2021/06/13 01:10:31;;;;;;;4.32;2.75;;;15.40;62.10;;;;;;5139207;27;20449;-65
2021/06/13 01:13:06;;;;;;;7.93;3.03;;;15.40;62.30;;;;;;5138727;27;20051;-65
2021/06/13 01:15:42;;;;;;;9.23;3.13;;;15.30;62.40;;;;;;5137502;27;20054;-64
2021/06/13 01:18:34;;;;;;;5.10;3.10;;;15.30;62.40;;;;;;5122374;27;20160;-64
2021/06/13 01:21:10;;;;;;;7.43;3.58;;;15.30;62.30;;;;;;5118175;28;20058;-66
2021/06/13 01:23:46;;;;;;;7.72;3.10;;;15.30;62.10;;;;;;5116997;28;20055;-66
2021/06/13 01:27:08;;;;;;;4.13;2.90;;;15.30;62.10;;;;;;5100648;28;20048;-65
2021/06/13 01:29:48;;;;;;;3.95;3.50;;;15.40;62.30;;;;;;5018469;28;20053;-65
2021/06/13 01:32:22;;;;;;;3.95;3.28;;;15.40;62.10;;;;;;5134172;27;20066;-64
2021/06/13 01:34:58;;;;;;;5.53;4.13;;;15.40;62.10;;;;;;5106929;28;20058;-65
2021/06/13 01:37:32;;;;;;;6.25;3.85;;;15.40;62.20;;;;;;5100604;28;20047;-65
2021/06/13 01:40:08;;;;;;;4.15;3.75;;;15.50;62.10;;;;;;5100418;28;20476;-66
2021/06/13 01:42:45;;;;;;;6.78;4.25;;;15.50;62.20;;;;;;5118861;27;20047;-66
2021/06/13 01:45:18;;;;;;;6.53;4.40;;;15.50;62.30;;;;;;5100146;28;20476;-65
2021/06/13 01:47:48;;;;;;;;;;;15.60;62.50;;;;;;5100554;28;20056;-66
2021/06/13 01:50:20;;;;;;;6.13;4.13;;;15.50;62.40;;;;;;5099779;28;19919;-67
2021/06/13 01:52:51;;;;;;;4.93;3.53;;;15.60;62.40;;;;;;5118057;28;20059;-66
2021/06/13 01:55:21;;;;;;;7.22;3.40;;;15.60;62.70;;;;;;5099000;28;20058;-66
2021/06/13 01:57:50;;;;;;;4.60;3.38;;;15.60;62.80;;;;;;5100208;28;20044;-65
2021/06/13 02:00:30;;;;;;;4.13;3.65;;;15.60;62.90;;;;;;5099633;28;20063;-65
2021/06/13 02:03:08;;;;;;;5.35;3.80;;;15.60;63.00;;;;;;5082155;28;20043;-65
2021/06/13 02:05:47;;;;;;;3.67;3.25;;;15.60;62.90;;;;;;5117597;28;20060;-67
2021/06/13 02:08:18;;;;;;;7.50;3.43;;;15.60;62.90;;;;;;5098606;28;20066;-66
2021/06/13 02:10:54;;;;;;;3.40;2.30;;;15.70;63.10;;;;;;5123917;27;20055;-65
2021/06/13 02:13:25;;;;;;;3.97;2.03;;;15.70;63.30;;;;;;5119141;27;20043;-66
2021/06/13 02:15:58;;;;;;;4.03;2.67;;;15.70;63.30;;;;;;5119408;27;20054;-65
2021/06/13 02:18:32;;;;;;;3.78;2.40;;;15.80;63.20;;;;;;5119955;27;20054;-64
2021/06/13 02:21:05;;;;;;;3.78;1.80;;;15.70;63.10;;;;;;5119610;27;20047;-65
2021/06/13 02:23:34;;;;;;;3.15;2.03;;;15.80;63.20;;;;;;5118667;27;20063;-65
2021/06/13 02:26:04;;;;;;;2.45;1.92;;;15.80;63.00;;;;;;5120043;27;20055;-63
2021/06/13 02:28:38;;;;;;;4.30;2.08;;;15.70;63.00;;;;;;5137014;27;20069;-66
2021/06/13 02:31:07;;;;;;;3.08;1.90;;;15.80;63.00;;;;;;5113952;28;20457;-65
2021/06/13 02:33:43;;;;;;;3.45;1.80;;;15.80;62.90;;;;;;5115901;28;20051;-65
2021/06/13 02:36:13;;;;;;;3.20;1.70;;;15.80;62.90;;;;;;5098230;28;20377;-66
2021/06/13 02:38:55;;;;;;;2.78;2.00;;;15.70;62.70;;;;;;5084478;28;20468;-66
2021/06/13 02:41:24;;;;;;;2.60;1.75;;;15.70;62.60;;;;;;5109235;27;20078;-66
2021/06/13 02:43:53;;;;;;;3.88;1.58;;;15.70;62.50;;;;;;5119647;27;20346;-66
2021/06/13 02:46:26;;;;;;;2.65;1.50;;;15.70;62.60;;;;;;5118789;27;20051;-66
2021/06/13 02:48:55;;;;;;;2.03;1.65;;;15.70;62.70;;;;;;5118647;27;20465;-66
2021/06/13 02:51:33;;;;;;;6.05;1.50;;;15.70;62.90;;;;;;5136306;27;20062;-66
2021/06/13 02:54:07;;;;;;;3.20;1.80;;;15.60;63.10;;;;;;5119123;27;20058;-66
2021/06/13 02:56:57;;;;;;;3.28;1.52;;;15.60;63.10;;;;;;5135781;27;20043;-66
2021/06/13 02:59:48;;;;;;;4.15;2.13;;;15.60;63.40;;;;;;5119437;27;20039;-64
2021/06/13 03:02:24;;;;;;;2.78;1.55;;;15.60;63.50;;;;;;5117966;27;20047;-64
2021/06/13 03:04:54;;;;;;;3.25;1.52;;;15.50;63.50;;;;;;5119466;27;20357;-66
2021/06/13 03:07:22;;;;;;;3.38;1.70;;;15.50;63.70;;;;;;5135623;27;20491;-66
2021/06/13 03:09:51;;;;;;;3.10;1.50;;;15.50;64.00;;;;;;5117651;27;20465;-64
2021/06/13 03:12:24;;;;;;;5.25;1.88;;;15.40;64.10;;;;;;5109440;28;20051;-67
2021/06/13 03:14:55;;;;;;;2.47;1.48;;;15.40;64.30;;;;;;5115165;28;20058;-65
2021/06/13 03:17:24;;;;;;;2.35;1.35;;;15.40;64.40;;;;;;5097769;28;20476;-65
2021/06/13 03:19:55;;;;;;;3.05;1.40;;;15.40;64.50;;;;;;5098024;28;20043;-66
2021/06/13 03:22:25;;;;;;;6.65;1.90;;;15.30;64.70;;;;;;5115031;28;20070;-66
2021/06/13 03:24:56;;;;;;;4.43;2.13;;;15.30;64.80;;;;;;5098224;28;20074;-64
2021/06/13 03:27:25;;;;;;;3.50;2.00;;;15.30;64.90;;;;;;5098309;28;20054;-65
2021/06/13 03:29:55;;;;;;;3.03;2.00;;;15.30;65.00;;;;;;5097303;28;20070;-65
2021/06/13 03:32:24;;;;;;;3.20;2.40;;;15.30;64.90;;;;;;5132495;27;20365;-64
2021/06/13 03:34:54;;;;;;;2.72;2.17;;;15.30;65.00;;;;;;5100291;27;20050;-65
2021/06/13 03:37:24;;;;;;;4.47;2.20;;;15.30;65.10;;;;;;5118090;27;20047;-66
2021/06/13 03:39:54;;;;;;;3.17;2.13;;;15.30;65.30;;;;;;5118489;27;20054;-66
2021/06/13 03:42:23;;;;;;;2.20;1.98;;;15.30;65.40;;;;;;5117216;27;20357;-67
2021/06/13 03:44:52;;;;;;;4.40;2.05;;;15.30;65.40;;;;;;5135953;27;20055;-65
2021/06/13 03:47:21;;;;;;;2.97;2.42;;;15.30;65.40;;;;;;5135860;27;20051;-66
2021/06/13 03:49:50;;;;;;;3.50;2.08;;;15.30;65.30;;;;;;5135147;27;20488;-66
2021/06/13 03:52:19;;;;;;;4.30;2.08;;;15.30;65.30;;;;;;5130544;27;20056;-67
2021/06/13 03:54:46;;;;;;;3.42;2.20;;;15.30;65.30;;;;;;5114592;28;20055;-66
2021/06/13 03:57:15;;;;;;;3.85;2.10;;;15.40;65.50;;;;;;5115632;28;20060;-67
2021/06/13 03:59:45;;;;;;;3.25;1.90;;;15.30;65.70;;;;;;5115279;28;20058;-65
2021/06/13 04:02:14;;;;;;;4.05;2.20;;;15.40;65.80;;;;;;5118058;27;20432;-65
2021/06/13 04:04:47;;;;;;;2.25;1.83;;;15.40;65.80;;;;;;5123112;27;20051;-66
2021/06/13 04:07:17;;;;;;;2.33;2.08;;;15.40;65.90;;;;;;5130211;27;20051;-66
2021/06/13 04:09:46;;;;;;;4.25;2.30;;;15.40;65.90;;;;;;5132783;27;20059;-64
2021/06/13 04:12:22;;;;;;;3.67;2.50;;;15.40;66.00;;;;;;5130862;28;20051;-64
2021/06/13 04:14:53;;;;;;;4.32;2.55;;;15.40;65.80;;;;;;5117648;28;20084;-64
2021/06/13 04:17:23;;;;;;;4.68;2.72;;;15.40;65.80;;;;;;5101473;28;20389;-65
2021/06/13 04:19:52;;;;;;;4.82;2.70;;;15.50;65.90;;;;;;5100048;28;20405;-64
2021/06/13 04:22:21;;;;;;;3.58;3.00;;;15.50;66.00;;;;;;5130255;28;20058;-66
2021/06/13 04:24:53;;;;;;;5.70;2.78;;;15.50;66.00;;;;;;5126507;28;20114;-64
2021/06/13 04:27:22;;;;;;;4.03;2.92;;;15.50;66.00;;;;;;5097589;28;20446;-66
2021/06/13 04:29:50;;;;;;;4.30;2.70;;;15.50;66.00;;;;;;5124686;28;20055;-66
2021/06/13 04:32:19;;;;;;;3.67;2.50;;;15.50;66.20;;;;;;5137220;27;20145;-67
2021/06/13 04:34:46;;;;;;;3.50;2.70;;;15.50;66.30;;;;;;5108426;28;20062;-65
2021/06/13 04:37:14;;;;;;;3.95;2.88;;;15.60;66.40;;;;;;5125215;27;20054;-66
2021/06/13 04:39:44;;;;;;;5.38;2.50;;;15.50;66.40;;;;;;5121767;27;20050;-65
2021/06/13 04:42:11;;;;;;;5.45;2.50;;;15.60;66.50;;;;;;5137866;27;20047;-64
2021/06/13 04:44:39;;;;;;;5.82;2.08;;;15.50;66.60;;;;;;5125932;27;20056;-66
2021/06/13 04:47:07;;;;;;;3.22;2.20;;;15.60;66.70;;;;;;5123095;27;20047;-65
2021/06/13 04:49:52;;;;;;;3.85;2.65;;;15.60;66.80;;;;;;5138497;27;20051;-66
2021/06/13 04:52:23;;;;;;;2.60;2.40;;;15.60;67.00;;;;;;5110971;28;20381;-65
2021/06/13 04:55:00;;;;;;;2.75;2.50;;;15.60;67.10;;;;;;5113314;27;20051;-65
2021/06/13 04:57:42;;;;;;;3.80;2.38;;;15.60;67.20;;;;;;5109187;28;20059;-65
2021/06/13 05:00:11;;;;;;;7.20;2.53;;;15.60;67.30;;;;;;5119717;27;20369;-66
2021/06/13 05:02:40;;;;;;;4.00;2.70;;;15.70;67.40;;;;;;5130759;27;20050;-64
2021/06/13 05:05:09;;;;;;;3.20;2.30;;;15.60;67.60;;;;;;5103094;28;20063;-65
2021/06/13 05:07:37;;;;;;;4.35;2.53;;;15.60;67.70;;;;;;5115653;27;20055;-66
2021/06/13 05:10:05;;;;;;;4.68;2.95;;;15.60;67.90;;;;;;5125557;27;20066;-64
2021/06/13 05:12:44;;;;;;;5.13;2.80;;;15.60;67.90;;;;;;5126948;27;20065;-66
2021/06/13 05:15:13;;;;;;;3.88;2.42;;;15.60;68.00;;;;;;5131710;27;20043;-66
2021/06/13 05:17:41;;;;;;;5.47;3.00;;;15.60;68.00;;;;;;5128775;27;20047;-66
2021/06/13 05:20:11;;;;;;;3.13;2.83;;;15.60;68.10;;;;;;5120621;27;20044;-64
2021/06/13 05:22:54;;;;;;;5.70;3.38;;;15.60;68.10;;;;;;5116856;27;20047;-66
2021/06/13 05:25:26;;;;;;;4.18;2.97;;;15.60;68.40;;;;;;5118639;28;20064;-64
2021/06/13 05:27:55;;;;;;;4.15;2.83;;;15.60;68.30;;;;;;5113829;27;20062;-66
2021/06/13 05:30:29;;;;;;;7.60;2.90;;;15.60;68.20;;;;;;5132047;27;20048;-66
2021/06/13 05:32:57;;;;;;;4.40;2.70;;;15.60;68.00;;;;;;5119327;27;20066;-65
2021/06/13 05:35:25;;;;;;;3.25;2.85;;;15.60;67.90;;;;;;5137397;27;20051;-64
2021/06/13 05:37:54;;;;;;;5.40;2.90;;;15.60;68.10;;;;;;5136896;27;20047;-64
2021/06/13 05:40:23;;;;;;;5.35;2.60;;;15.50;68.30;;;;;;5128520;27;20044;-66
2021/06/13 05:42:52;;;;;;;4.55;2.88;;;15.60;68.50;;;;;;5116783;27;20078;-64
2021/06/13 05:45:22;;;;;;;4.43;3.05;;;15.50;68.50;;;;;;5123530;27;20066;-67
2021/06/13 05:47:52;;;;;;;5.68;2.72;;;15.60;68.50;;;;;;5122473;27;20059;-66
2021/06/13 05:50:21;;;;;;;3.78;3.38;;;15.60;68.50;;;;;;5128690;27;20047;-66
2021/06/13 05:52:49;;;;;;;9.65;3.38;;;15.60;68.60;;;;;;5104708;27;20055;-66
2021/06/13 05:55:18;;;;;;;7.50;3.65;;;15.60;68.50;;;;;;5118888;27;20055;-64
2021/06/13 05:57:47;;;;;;;3.78;3.40;;;15.60;68.20;;;;;;5118533;27;20070;-65
2021/06/13 06:00:21;;;;;;;7.43;3.30;;;15.60;68.00;;;;;;5123693;27;20039;-66
2021/06/13 06:02:50;;;;;;;7.20;3.63;;;15.70;67.80;;;;;;5101173;27;20047;-64
2021/06/13 06:05:19;;;;;;;4.63;3.70;;;15.70;67.60;;;;;;5119092;27;20070;-64
2021/06/13 06:07:50;;;;;;;6.38;3.85;;;15.70;67.60;;;;;;5117798;28;20393;-65
2021/06/13 06:10:20;;;;;;;5.85;4.40;;;15.70;67.50;;;;;;5125546;27;20051;-67
2021/06/13 06:12:49;;;;;;;6.38;3.97;;;15.70;67.60;;;;;;5134314;27;20055;-66
2021/06/13 06:15:20;;;;;;;8.52;3.83;;;15.70;67.40;;;;;;5127574;27;20044;-65
2021/06/13 06:17:50;;;;;;;6.63;3.90;;;15.80;67.40;;;;;;5130193;27;20062;-65
2021/06/13 06:20:22;;;;;;;4.55;3.67;;;15.80;67.40;;;;;;5129339;27;20477;-64
2021/06/13 06:22:50;;;;;;;7.00;3.85;;;15.80;67.60;;;;;;5120595;27;20039;-64
2021/06/13 06:25:19;;;;;;;7.13;3.85;;;15.80;67.60;;;;;;5124262;27;20058;-67
2021/06/13 06:27:49;;;;;;;6.22;4.20;;;15.80;67.60;;;;;;5116216;27;20062;-67
2021/06/13 06:30:17;;;;;;;7.93;3.45;;;15.80;67.60;;;;;;5135888;27;20066;-64
2021/06/13 06:32:46;;;;;;;6.15;3.70;;;15.80;67.60;;;;;;5135968;27;20058;-66
2021/06/13 06:35:15;;;;;;;5.00;3.88;;;15.80;67.50;;;;;;5136241;27;20472;-65
2021/06/13 06:37:43;;;;;;;6.82;4.00;;;15.80;67.40;;;;;;5118553;27;20047;-66
2021/06/13 06:40:13;;;;;;;7.80;4.00;;;15.90;67.40;;;;;;5134882;27;20473;-67
2021/06/13 06:42:42;;;;;;;6.57;3.80;;;15.90;67.40;;;;;;5135164;27;20062;-65
2021/06/13 06:45:12;;;;;;;4.38;3.85;;;15.90;67.30;;;;;;5137034;27;20051;-67
2021/06/13 06:47:43;;;;;;;5.90;3.83;;;16.00;67.30;;;;;;5133609;27;20051;-65
2021/06/13 06:50:13;;;;;;;4.82;3.65;;;16.00;67.30;;;;;;5110531;28;20059;-65
2021/06/13 06:52:41;;;;;;;7.50;4.15;;;16.00;67.20;;;;;;5102796;27;20043;-66
2021/06/13 06:55:10;;;;;;;3.97;3.58;;;16.00;67.10;;;;;;5117329;27;20465;-65
2021/06/13 06:57:43;;;;;;;4.75;3.83;;;16.00;67.00;;;;;;5116265;27;20117;-65
2021/06/13 07:00:12;;;;;;;11.02;5.25;;;16.10;67.00;;;;;;5122438;27;20515;-67
2021/06/13 07:02:40;;;;;;;5.53;4.57;;;16.10;66.90;;;;;;5122786;27;20051;-65
2021/06/13 07:05:10;;;;;;;5.65;3.70;;;16.00;67.00;;;;;;5120602;27;20066;-67
2021/06/13 07:07:38;;;;;;;9.05;4.10;;;16.00;67.10;;;;;;5128455;27;20066;-67
2021/06/13 07:10:07;;;;;;;4.88;3.97;;;16.00;67.30;;;;;;5115416;27;20047;-67
2021/06/13 07:12:35;;;;;;;5.50;4.10;;;16.10;67.50;;;;;;5133484;27;20058;-66
2021/06/13 07:15:06;;;;;;;4.00;3.60;;;16.20;67.70;;;;;;5102533;28;20084;-64
2021/06/13 07:17:35;;;;;;;7.57;3.60;;;16.20;67.70;;;;;;5117141;27;20488;-65
2021/06/13 07:20:08;;;;;;;5.60;4.18;;;16.20;67.80;;;;;;5127448;27;20056;-64
2021/06/13 07:22:37;;;;;;;6.10;3.90;;;16.30;67.90;;;;;;5102081;28;20484;-64
2021/06/13 07:25:07;;;;;;;5.50;4.03;;;16.30;68.00;;;;;;5125909;27;20039;-65
2021/06/13 07:27:36;;;;;;;6.50;4.25;;;16.40;67.90;;;;;;5103875;28;20504;-65
2021/06/13 07:30:10;;;;;;;5.30;3.80;;;16.40;67.90;;;;;;5124216;27;20051;-66
2021/06/13 07:32:38;;;;;;;4.32;3.65;;;16.50;68.00;;;;;;5124062;27;20059;-66
2021/06/13 07:35:08;;;;;;;5.13;3.83;;;16.60;67.80;;;;;;5097116;28;20051;-65
2021/06/13 07:37:36;;;;;;;5.65;3.85;;;16.70;67.80;;;;;;5115824;27;20048;-66
2021/06/13 07:40:05;;;;;;;5.70;3.88;;;16.80;67.70;;;;;;5126747;27;20047;-67
2021/06/13 07:42:33;;;;;;;7.88;3.40;;;16.80;67.50;;;;;;5098939;28;20043;-66
2021/06/13 07:45:04;;;;;;;4.10;3.70;;;16.80;67.60;;;;;;5122545;27;20109;-66
2021/06/13 07:47:32;;;;;;;3.90;3.50;;;16.90;67.70;;;;;;5122801;27;20047;-66
2021/06/13 07:50:00;;;;;;;5.53;3.20;;;17.00;67.60;;;;;;5117077;27;20056;-65
2021/06/13 07:52:28;;;;;;;4.47;3.30;;;17.00;67.60;;;;;;5080873;28;20055;-66
2021/06/13 07:54:57;;;;;;;4.28;2.90;;;17.00;67.60;;;;;;5121865;27;20381;-64
2021/06/13 07:57:25;;;;;;;8.00;3.35;;;17.10;67.60;;;;;;5120722;27;20055;-65
2021/06/13 07:59:53;;;;;;;4.60;2.97;;;17.20;67.50;;;;;;5125099;27;20050;-66
2021/06/13 08:02:20;;;;;;;10.07;3.25;;;17.30;67.50;;;;;;5116932;27;20055;-66
2021/06/13 08:05:01;;;;;;;5.82;2.90;;;17.30;67.20;;;;;;5117128;28;20124;-66
2021/06/13 08:07:28;;;;;;;2.80;2.58;;;17.40;67.20;;;;;;5115715;28;20051;-63
2021/06/13 08:09:56;;;;;;;6.55;2.95;;;17.40;67.30;;;;;;5132459;27;20487;-64
2021/06/13 08:12:24;;;;;;;3.85;2.58;;;17.50;67.20;;;;;;5128766;27;20474;-67
2021/06/13 08:14:54;;;;;;;5.93;2.63;;;17.50;67.10;;;;;;5131765;28;20461;-66
2021/06/13 08:17:23;;;;;;;3.58;2.50;;;17.60;67.20;;;;;;5120967;28;20043;-67
2021/06/13 08:19:51;;;;;;;2.67;2.45;;;17.60;67.30;;;;;;5118958;28;20047;-68
2021/06/13 08:22:29;;;;;;;4.55;3.10;;;17.70;67.40;;;;;;5118499;28;20084;-68
2021/06/13 08:25:00;;;;;;;5.78;2.45;;;17.80;67.40;;;;;;5102432;28;20039;-68
2021/06/13 08:27:29;;;;;;;3.50;2.38;;;17.80;67.60;;;;;;5105705;28;20055;-68
2021/06/13 08:29:58;;;;;;;5.30;2.40;;;18.00;67.60;;;;;;5130982;28;20050;-66
2021/06/13 08:32:27;;;;;;;2.83;2.38;;;18.10;67.50;;;;;;5130990;28;20338;-68
2021/06/13 08:34:55;;;;;;;2.55;2.35;;;18.20;67.50;;;;;;5119500;28;20042;-65
2021/06/13 08:37:24;;;;;;;2.85;2.58;;;18.30;67.40;;;;;;5112157;28;20055;-67
2021/06/13 08:39:52;;;;;;;7.75;2.53;;;18.30;67.20;;;;;;5100015;28;20500;-65
2021/06/13 08:42:21;;;;;;;3.33;2.53;;;18.40;67.00;;;;;;5110905;28;20458;-66
2021/06/13 08:44:50;;;;;;;5.45;2.40;;;18.40;66.80;;;;;;5102801;28;20074;-65
2021/06/13 08:47:19;;;;;;;4.25;2.40;;;18.50;66.70;;;;;;5116589;28;20055;-66
2021/06/13 08:49:49;;;;;;;5.53;2.47;;;18.50;66.70;;;;;;5121520;28;20056;-66
2021/06/13 08:52:17;;;;;;;3.17;2.30;;;18.60;66.70;;;;;;5115219;28;20056;-67
2021/06/13 08:54:46;;;;;;;5.05;2.40;;;18.70;66.70;;;;;;5113973;28;20450;-69
2021/06/13 08:57:15;;;;;;;4.25;2.30;;;18.70;66.70;;;;;;5113861;28;20058;-68
2021/06/13 08:59:46;;;;;;;5.60;2.55;;;18.80;66.70;;;;;;5120543;28;20457;-68
2021/06/13 09:02:15;;;;;;;5.28;2.70;;;18.90;66.50;;;;;;5134070;27;20039;-65
2021/06/13 09:04:43;;;;;;;7.32;2.67;;;18.90;66.40;;;;;;5121466;28;20379;-66
2021/06/13 09:07:25;;;;;;;3.00;2.60;;;19.00;66.30;;;;;;5114403;28;20052;-66
2021/06/13 09:10:05;;;;;;;4.88;2.50;;;19.10;66.50;;;;;;5096303;28;20474;-68
2021/06/13 09:12:35;;;;;;;11.55;3.00;;;19.20;66.60;;;;;;5114974;28;20067;-68
2021/06/13 09:15:05;;;;;;;4.80;2.83;;;19.30;66.70;;;;;;5115643;28;20393;-66
2021/06/13 09:17:42;;;;;;;4.38;2.47;;;19.50;66.30;;;;;;5115886;28;20047;-67
2021/06/13 09:20:25;;;;;;;4.13;2.50;;;19.60;65.80;;;;;;5118294;28;20047;-66
2021/06/13 09:23:17;;;;;;;6.78;2.33;;;19.70;65.50;;;;;;5117549;28;20377;-65
2021/06/13 09:25:45;;;;;;;6.32;2.22;;;19.80;65.40;;;;;;5099776;28;20062;-66
2021/06/13 09:28:20;;;;;;;4.57;2.47;;;19.80;65.10;;;;;;5117524;28;20066;-68
2021/06/13 09:30:51;;;;;;;4.72;2.58;;;19.80;64.90;;;;;;5118317;28;20055;-66
2021/06/13 09:33:28;;;;;;;10.85;2.42;;;19.90;64.80;;;;;;5118427;28;20051;-67
2021/06/13 09:36:04;;;;;;;3.28;2.40;;;20.00;64.80;;;;;;5117146;28;20044;-68
2021/06/13 09:38:34;;;;;;;3.60;2.20;;;20.00;64.70;;;;;;5117297;28;20044;-65
2021/06/13 09:41:10;;;;;;;2.72;1.85;;;20.10;64.60;;;;;;5125598;27;20481;-66
2021/06/13 09:43:51;;;;;;;6.50;2.20;;;20.10;64.50;;;;;;5121085;27;20369;-69
2021/06/13 09:46:30;;;;;;;5.05;2.20;;;20.20;64.30;;;;;;5120647;27;20051;-68
2021/06/13 09:49:05;;;;;;;3.08;2.03;;;20.20;64.00;;;;;;5119641;27;20055;-66
2021/06/13 09:51:36;;;;;;;6.28;2.60;;;20.30;64.20;;;;;;5138454;27;20043;-65
2021/06/13 09:54:06;;;;;;;3.47;2.03;;;20.30;64.00;;;;;;5138701;27;20043;-69
2021/06/13 09:56:41;;;;;;;6.22;2.50;;;20.30;63.90;;;;;;5119782;27;20052;-66
2021/06/13 09:59:16;;;;;;;4.43;2.03;;;20.30;63.70;;;;;;5118341;28;20051;-69
2021/06/13 10:01:46;;;;;;;4.18;2.28;;;20.30;64.00;;;;;;5116342;28;20066;-68
2021/06/13 10:04:20;;;;;;;2.42;1.92;;;20.40;64.20;;;;;;5117887;28;20048;-66
2021/06/13 10:06:51;;;;;;;4.03;2.15;;;20.40;64.00;;;;;;5117316;28;20047;-68
2021/06/13 10:09:21;;;;;;;5.72;1.90;;;20.50;63.70;;;;;;5098382;28;20055;-68
2021/06/13 10:12:02;;;;;;;3.20;2.03;;;20.50;63.30;;;;;;5132061;27;20396;-65
2021/06/13 10:14:30;;;;;;;5.50;2.40;;;20.50;63.30;;;;;;5119789;27;20051;-69
2021/06/13 10:16:58;;;;;;;3.33;1.90;;;20.60;63.30;;;;;;5095840;27;20035;-67
2021/06/13 10:19:28;;;;;;;2.83;1.80;;;20.60;63.10;;;;;;5123339;27;20058;-66
2021/06/13 10:22:01;;;;;;;3.10;1.80;;;20.60;63.10;;;;;;5118244;27;20051;-67
2021/06/13 10:24:30;;;;;;;;;;;20.70;63.40;;;;;;5126882;27;20062;-70
2021/06/13 10:27:03;;;;;;;3.10;2.20;;;20.70;63.30;;;;;;5132222;27;19919;-66
2021/06/13 10:29:33;;;;;;;4.97;2.20;;;20.70;63.20;;;;;;5129987;27;20353;-67
2021/06/13 10:32:04;;;;;;;3.30;1.80;;;20.80;63.10;;;;;;5131755;27;20062;-68
2021/06/13 10:34:32;;;;;;;2.42;1.80;;;20.70;62.90;;;;;;5114681;27;20051;-67
2021/06/13 10:37:04;;;;;;;2.45;1.90;;;20.70;62.80;;;;;;5116808;27;20066;-65
2021/06/13 10:39:34;;;;;;;4.90;2.15;;;20.70;62.80;;;;;;5122040;27;20047;-66
2021/06/13 10:42:08;;;;;;;5.07;2.08;;;20.80;62.80;;;;;;5107728;27;20350;-66
2021/06/13 10:44:48;;;;;;;4.13;2.00;;;20.80;62.80;;;;;;5103094;27;20043;-66
2021/06/13 10:47:16;;;;;;;3.63;1.65;;;20.80;62.90;;;;;;5124860;27;20049;-66
2021/06/13 10:49:59;;;;;;;3.00;1.90;;;20.90;62.90;;;;;;5136028;27;20061;-67
2021/06/13 10:52:28;;;;;;;8.20;2.28;;;20.90;62.70;;;;;;5120981;27;20051;-67
2021/06/13 10:55:02;;;;;;;4.35;1.80;;;21.00;62.50;;;;;;5118525;27;20047;-66
2021/06/13 10:57:32;;;;;;;2.83;1.70;;;21.00;62.40;;;;;;5135298;27;20047;-67
2021/06/13 11:00:24;;;;;;;3.75;1.88;;;21.10;62.50;;;;;;5137228;27;20051;-68
2021/06/13 11:02:59;;;;;;;3.72;1.65;;;21.20;62.70;;;;;;5125707;27;20047;-69
2021/06/13 11:05:42;;;;;;;3.53;2.00;;;21.30;62.90;;;;;;5120769;27;20051;-66
2021/06/13 11:08:11;;;;;;;;;;;21.30;62.50;;;;;;5114587;28;20070;-69
2021/06/13 11:10:40;;;;;;;3.15;1.60;;;21.50;62.30;;;;;;5104960;27;19923;-68
2021/06/13 11:13:21;;;;;;;4.13;2.20;;;21.60;62.30;;;;;;5100806;28;20381;-66
2021/06/13 11:15:51;;;;;;;4.25;1.80;;;21.70;62.10;;;;;;5118359;27;20090;-65
2021/06/13 11:18:28;;;;;;;2.60;1.50;;;21.80;61.80;;;;;;5129913;27;20050;-66
2021/06/13 11:21:10;;;;;;;5.10;1.85;;;22.00;61.90;;;;;;5117143;27;20051;-69
2021/06/13 11:23:40;;;;;;;3.70;1.55;;;22.10;61.90;;;;;;5120677;27;20039;-68
2021/06/13 11:26:28;;;;;;;5.13;2.10;;;22.30;61.40;;;;;;5132445;27;20369;-67
2021/06/13 11:28:56;;;;;;;4.68;1.98;;;22.60;61.10;;;;;;5132536;27;20450;-68
2021/06/13 11:31:24;;;;;;;3.65;1.60;;;22.80;61.00;;;;;;5128581;27;20051;-69
2021/06/13 11:33:55;;;;;;;4.28;1.45;;;23.00;60.50;;;;;;5116840;27;20051;-67
2021/06/13 11:36:31;;;;;;;2.55;1.20;;;23.30;59.70;;;;;;5104284;27;20051;-70
2021/06/13 11:39:02;;;;;;;1.65;1.10;;;23.40;58.60;;;;;;5134735;27;20047;-67
2021/06/13 11:41:36;;;;;;;1.50;0.73;;;23.60;57.80;;;;;;5113987;28;20060;-66
2021/06/13 11:44:07;;;;;;;2.13;1.02;;;23.70;57.00;;;;;;5116142;28;20059;-67
2021/06/13 11:46:38;;;;;;;3.75;0.90;;;23.80;56.30;;;;;;5127325;27;20056;-66
2021/06/13 11:49:10;;;;;;;1.05;0.90;;;24.00;55.90;;;;;;5124460;27;20466;-69
2021/06/13 11:51:57;;;;;;;2.22;0.77;;;24.20;55.40;;;;;;5115656;28;20044;-68
2021/06/13 11:54:34;;;;;;;1.58;0.93;;;24.40;54.30;;;;;;5128861;27;20050;-66
2021/06/13 11:57:14;;;;;;;2.95;1.08;;;24.40;53.80;;;;;;5114658;28;20059;-68
2021/06/13 11:59:47;;;;;;;3.80;0.98;;;24.50;53.70;;;;;;5123056;27;20062;-69
2021/06/13 12:02:22;;;;;;;3.50;1.20;;;24.40;53.40;;;;;;5131859;27;20050;-67
2021/06/13 12:04:50;;;;;;;2.47;1.17;;;24.30;53.50;;;;;;5118150;27;20054;-68
2021/06/13 12:07:21;;;;;;;3.13;1.27;;;24.20;53.80;;;;;;5115451;28;20051;-68
2021/06/13 12:09:50;;;;;;;1.50;1.02;;;24.10;54.00;;;;;;5106251;28;20047;-67
2021/06/13 12:12:21;;;;;;;4.13;1.38;;;24.00;54.40;;;;;;5133921;27;20098;-67
2021/06/13 12:14:55;;;;;;;3.38;1.38;;;23.90;54.50;;;;;;5134835;28;20059;-67
2021/06/13 12:17:25;;;;;;;2.47;1.30;;;23.80;54.70;;;;;;5118809;28;20063;-69
2021/06/13 12:19:56;;;;;;;2.08;1.20;;;23.80;54.90;;;;;;5128333;28;20104;-67
2021/06/13 12:28:30;;;;;;;2.88;1.15;;;23.50;55.80;;;;;;5114627;28;20047;-69
2021/06/13 12:30:58;;;;;;;2.80;1.17;;;23.50;56.20;;;;;;5096037;28;20055;-69
2021/06/13 12:33:35;;;;;;;4.38;1.40;;;23.40;56.30;;;;;;5128671;28;20066;-66
2021/06/13 12:36:06;;;;;;;1.27;0.90;;;23.40;56.30;;;;;;5099688;28;20381;-66
2021/06/13 12:38:36;;;;;;;1.42;0.80;;;23.30;56.20;;;;;;5124911;28;20051;-69
2021/06/13 12:41:04;;;;;;;2.97;1.02;;;23.30;56.30;;;;;;5134434;27;20047;-68
2021/06/13 12:43:43;;;;;;;1.50;0.90;;;23.30;56.30;;;;;;5131665;28;20409;-68
2021/06/13 12:46:12;;;;;;;4.00;0.85;;;23.30;56.20;;;;;;5132273;28;20050;-69
2021/06/13 12:48:41;;;;;;;3.50;0.82;;;23.30;56.30;;;;;;5130324;28;20055;-70
2021/06/13 12:51:09;;;;;;;1.63;0.80;;;23.50;56.40;;;;;;5119836;28;20046;-70
2021/06/13 12:53:43;;;;;;;1.95;1.20;;;23.70;56.00;;;;;;5136679;27;20512;-68
2021/06/13 12:56:13;;;;;;;2.58;0.88;;;23.90;55.20;;;;;;5130790;27;20048;-68
2021/06/13 12:58:42;;;;;;;1.73;1.00;;;24.10;54.80;;;;;;5128647;27;20047;-69
2021/06/13 13:01:13;;;;;;;1.92;0.90;;;24.20;54.50;;;;;;5107545;27;20062;-69
2021/06/13 13:03:43;;;;;;;2.45;0.70;;;24.20;54.30;;;;;;5135554;27;20416;-67
2021/06/13 13:06:14;;;;;;;1.52;0.65;;;24.30;54.20;;;;;;5120122;27;20054;-69
2021/06/13 13:08:51;;;;;;;1.08;0.70;;;24.30;53.80;;;;;;5102326;27;20679;-68
2021/06/13 13:11:32;;;;;;;3.47;0.75;;;24.50;53.60;;;;;;5126306;27;20056;-67
2021/06/13 13:14:03;;;;;;;1.58;0.80;;;24.70;53.30;;;;;;5120815;27;20066;-70
2021/06/13 13:16:34;;;;;;;3.88;0.93;;;24.80;53.10;;;;;;5099239;28;20056;-66